Time;durP1;ratioP1;P1;durP2;ratioP2;P2;SDS_P1;SDS_P2;PMS_P1;PMS_P2;Temp;Humidity;BMP_temperature;BMP_pressure;BME280_temperature;BME280_humidity;BME280_pressure;Samples;Min_cycle;Max_cycle;Signal;HPM_P1;HPM_P2
2023/12/05 00:02:19;;;;;;;23.73;18.42;;;0.10;99.90;;;;;;5044095;28;20202;-59
2023/12/05 00:04:46;;;;;;;23.63;20.25;;;0.20;99.90;;;;;;5051008;28;20222;-60
2023/12/05 00:07:14;;;;;;;26.38;19.15;;;0.20;99.90;;;;;;5050635;28;20297;-60
2023/12/05 00:09:41;;;;;;;22.67;19.02;;;0.30;99.90;;;;;;5050169;28;20245;-60
2023/12/05 00:12:08;;;;;;;23.10;18.10;;;0.30;99.90;;;;;;5051688;28;20224;-60
2023/12/05 00:14:35;;;;;;;26.52;18.90;;;0.30;99.90;;;;;;5055016;28;20202;-60
2023/12/05 00:17:02;;;;;;;25.55;17.98;;;0.30;99.90;;;;;;5054514;28;20206;-60
2023/12/05 00:19:29;;;;;;;27.90;19.27;;;0.40;99.90;;;;;;5054740;28;20237;-60
2023/12/05 00:21:56;;;;;;;25.98;19.98;;;0.40;99.90;;;;;;5054889;28;20649;-60
2023/12/05 00:24:24;;;;;;;26.17;19.38;;;0.50;99.90;;;;;;5054985;28;20293;-59
2023/12/05 00:26:51;;;;;;;22.58;20.30;;;0.50;99.90;;;;;;5054778;28;20230;-59
2023/12/05 00:29:18;;;;;;;23.67;18.77;;;0.50;99.90;;;;;;5054401;28;20238;-60
2023/12/05 00:31:45;;;;;;;23.25;18.25;;;0.50;99.90;;;;;;5054608;28;20206;-60
2023/12/05 00:34:12;;;;;;;28.70;20.95;;;0.50;99.90;;;;;;5054604;28;20289;-60
2023/12/05 00:36:39;;;;;;;28.80;19.58;;;0.50;99.90;;;;;;5054688;28;20292;-60
2023/12/05 00:39:06;;;;;;;24.40;19.85;;;0.60;99.90;;;;;;5054185;28;20233;-60
2023/12/05 00:41:34;;;;;;;25.88;19.40;;;0.60;99.90;;;;;;5054590;28;20210;-61
2023/12/05 00:44:01;;;;;;;25.80;20.70;;;0.60;99.90;;;;;;5054440;28;20226;-60
2023/12/05 00:46:27;;;;;;;28.38;20.48;;;0.60;99.90;;;;;;5054390;28;20206;-60
2023/12/05 00:48:54;;;;;;;20.52;18.40;;;0.60;99.90;;;;;;5054087;28;20709;-60
2023/12/05 00:51:21;;;;;;;27.55;19.65;;;0.60;99.90;;;;;;5054599;28;20212;-60
2023/12/05 00:53:48;;;;;;;20.95;18.70;;;0.60;99.90;;;;;;5054494;28;20211;-60
2023/12/05 00:56:17;;;;;;;21.65;19.23;;;0.70;99.90;;;;;;5054582;28;20205;-60
2023/12/05 00:58:45;;;;;;;21.85;18.85;;;0.70;99.90;;;;;;5054287;28;20234;-61
2023/12/05 01:01:11;;;;;;;25.67;18.77;;;0.70;99.90;;;;;;5054298;28;20210;-61
2023/12/05 01:03:38;;;;;;;19.88;17.73;;;0.80;99.90;;;;;;5054702;28;20226;-61
2023/12/05 01:06:06;;;;;;;27.17;18.90;;;0.70;99.90;;;;;;5054374;28;20206;-61
2023/12/05 01:08:33;;;;;;;30.73;22.65;;;0.80;99.90;;;;;;5053937;28;20241;-61
2023/12/05 01:11:00;;;;;;;24.35;19.80;;;0.80;99.90;;;;;;5054342;28;20222;-60
2023/12/05 01:13:27;;;;;;;26.02;20.02;;;0.70;99.90;;;;;;5054287;28;20662;-60
2023/12/05 01:15:55;;;;;;;27.08;20.25;;;0.80;99.90;;;;;;5054034;28;20649;-60
2023/12/05 01:18:22;;;;;;;23.38;19.42;;;0.80;99.90;;;;;;5053962;28;20226;-61
2023/12/05 01:20:49;;;;;;;22.65;18.67;;;0.80;99.90;;;;;;5054268;28;20206;-61
2023/12/05 01:23:16;;;;;;;25.45;19.70;;;0.80;99.90;;;;;;5053970;28;20638;-61
2023/12/05 01:25:43;;;;;;;27.25;20.52;;;0.80;99.90;;;;;;5053086;28;20206;-61
2023/12/05 01:28:10;;;;;;;32.30;20.23;;;0.80;99.90;;;;;;5053234;28;20305;-61
2023/12/05 01:30:36;;;;;;;28.10;20.67;;;0.80;99.90;;;;;;5053424;28;20699;-61
2023/12/05 01:33:05;;;;;;;25.38;20.58;;;0.80;99.90;;;;;;5053727;28;20297;-61
2023/12/05 01:35:31;;;;;;;27.45;22.02;;;0.80;99.90;;;;;;5053335;28;20207;-61
2023/12/05 01:37:58;;;;;;;24.75;20.00;;;0.90;99.90;;;;;;5053105;28;20605;-60
2023/12/05 01:40:25;;;;;;;27.40;23.13;;;0.90;99.90;;;;;;5053435;28;20202;-61
2023/12/05 01:42:52;;;;;;;31.27;20.38;;;0.90;99.90;;;;;;5053181;28;20255;-61
2023/12/05 01:45:19;;;;;;;23.80;21.20;;;0.90;99.90;;;;;;5053040;28;20231;-61
2023/12/05 01:47:46;;;;;;;27.65;20.60;;;1.00;99.90;;;;;;5052962;28;20216;-61
2023/12/05 01:50:17;;;;;;;25.67;20.25;;;1.00;99.90;;;;;;5052990;28;20230;-61
2023/12/05 01:52:50;;;;;;;28.35;21.10;;;0.90;99.90;;;;;;5052952;28;20213;-61
2023/12/05 01:55:17;;;;;;;26.10;21.15;;;0.90;99.90;;;;;;5053048;28;20289;-61
2023/12/05 01:57:44;;;;;;;26.35;19.90;;;1.00;99.90;;;;;;5052729;28;20213;-61
2023/12/05 02:00:12;;;;;;;23.58;20.55;;;1.00;99.90;;;;;;5053110;28;20223;-61
2023/12/05 02:02:39;;;;;;;34.80;21.38;;;1.00;99.90;;;;;;5053066;28;20260;-61
2023/12/05 02:05:07;;;;;;;30.05;20.88;;;1.00;99.90;;;;;;5052896;28;20223;-61
2023/12/05 02:07:36;;;;;;;29.65;19.67;;;1.00;99.90;;;;;;5052337;28;20297;-61
2023/12/05 02:10:03;;;;;;;31.05;21.50;;;1.00;99.90;;;;;;5052246;28;20272;-61
2023/12/05 02:12:30;;;;;;;28.30;21.33;;;1.00;99.90;;;;;;5052923;28;20587;-61
2023/12/05 02:14:58;;;;;;;26.08;20.48;;;1.10;99.90;;;;;;5052783;28;20293;-61
2023/12/05 02:17:32;;;;;;;33.35;19.90;;;1.00;99.90;;;;;;5052348;28;20260;-61
2023/12/05 02:20:06;;;;;;;27.38;22.23;;;1.10;99.90;;;;;;5052472;28;20309;-61
2023/12/05 02:23:10;;;;;;;25.73;19.80;;;1.10;99.90;;;;;;5052494;28;20207;-59
2023/12/05 02:25:53;;;;;;;28.52;21.45;;;1.10;99.90;;;;;;5036926;28;20539;-61
2023/12/05 02:28:23;;;;;;;29.05;18.92;;;1.10;99.90;;;;;;5052101;28;20720;-62
2023/12/05 02:30:49;;;;;;;30.58;20.88;;;1.10;99.90;;;;;;5052292;28;20216;-61
2023/12/05 02:33:16;;;;;;;29.70;23.67;;;1.10;99.90;;;;;;5052584;28;20216;-61
2023/12/05 02:35:43;;;;;;;27.95;20.10;;;1.10;99.90;;;;;;5051416;28;20206;-61
2023/12/05 02:38:15;;;;;;;31.27;20.67;;;1.20;99.90;;;;;;5051934;28;20253;-61
2023/12/05 02:40:51;;;;;;;28.50;21.67;;;1.20;99.90;;;;;;5052215;28;20213;-59
2023/12/05 02:43:32;;;;;;;25.67;21.17;;;1.20;99.90;;;;;;5052095;28;20230;-61
2023/12/05 02:46:00;;;;;;;28.00;20.90;;;1.20;99.90;;;;;;5052283;28;20201;-61
2023/12/05 02:48:28;;;;;;;33.95;23.45;;;1.20;99.90;;;;;;5052087;28;20708;-61
2023/12/05 02:50:54;;;;;;;27.30;22.15;;;1.20;99.90;;;;;;5052342;28;20202;-60
2023/12/05 02:53:21;;;;;;;29.35;22.75;;;1.20;99.90;;;;;;5052280;28;20363;-61
2023/12/05 02:55:49;;;;;;;26.67;19.98;;;1.20;99.90;;;;;;5052082;28;20207;-61
2023/12/05 02:58:15;;;;;;;29.08;22.80;;;1.20;99.90;;;;;;5051935;28;20222;-62
2023/12/05 03:00:44;;;;;;;29.45;22.13;;;1.30;99.90;;;;;;5052292;28;20244;-62
2023/12/05 03:03:11;;;;;;;29.25;20.27;;;1.30;99.90;;;;;;5052198;28;20214;-62
2023/12/05 03:05:38;;;;;;;22.10;18.95;;;1.30;99.90;;;;;;5051851;28;20236;-62
2023/12/05 03:08:05;;;;;;;26.15;20.52;;;1.30;99.90;;;;;;5051269;28;20723;-62
2023/12/05 03:10:32;;;;;;;29.00;21.95;;;1.30;99.90;;;;;;5051597;28;20213;-62
2023/12/05 03:12:59;;;;;;;31.33;21.27;;;1.30;99.90;;;;;;5074682;22;20301;-65
2023/12/05 03:15:26;;;;;;;33.33;22.98;;;1.30;99.90;;;;;;5051363;28;20198;-64
2023/12/05 03:17:54;;;;;;;28.92;23.85;;;1.30;99.90;;;;;;5050935;28;20206;-64
2023/12/05 03:20:21;;;;;;;28.40;21.30;;;1.30;99.90;;;;;;5051374;28;20752;-64
2023/12/05 03:22:48;;;;;;;29.67;23.17;;;1.30;99.90;;;;;;5051418;28;20213;-64
2023/12/05 03:25:15;;;;;;;28.23;23.67;;;1.30;99.90;;;;;;5051328;28;20316;-64
2023/12/05 03:27:42;;;;;;;27.50;20.88;;;1.30;99.90;;;;;;5051054;28;20297;-64
2023/12/05 03:30:10;;;;;;;31.90;22.52;;;1.30;99.90;;;;;;5051471;28;20260;-64
2023/12/05 03:32:37;;;;;;;31.00;20.17;;;1.30;99.90;;;;;;5051416;28;20571;-64
2023/12/05 03:35:06;;;;;;;29.45;21.40;;;1.30;99.90;;;;;;5051199;28;20313;-64
2023/12/05 03:37:33;;;;;;;29.15;20.83;;;1.30;99.90;;;;;;5050977;28;20210;-64
2023/12/05 03:39:59;;;;;;;26.38;21.38;;;1.30;99.90;;;;;;5051122;28;20216;-65
2023/12/05 03:42:26;;;;;;;29.80;24.27;;;1.30;99.90;;;;;;5051328;28;20305;-64
2023/12/05 03:44:53;;;;;;;29.65;23.23;;;1.30;99.90;;;;;;5051164;28;20700;-64
2023/12/05 03:47:20;;;;;;;27.67;22.88;;;1.30;99.90;;;;;;5050552;28;20217;-65
2023/12/05 03:49:47;;;;;;;28.83;21.60;;;1.40;99.90;;;;;;5050986;28;20694;-65
2023/12/05 03:52:15;;;;;;;28.20;21.88;;;1.40;99.90;;;;;;5051072;28;20668;-65
2023/12/05 03:54:42;;;;;;;25.30;21.42;;;1.30;99.90;;;;;;5050835;28;20218;-64
2023/12/05 03:57:09;;;;;;;29.35;23.23;;;1.40;99.90;;;;;;5050967;28;20206;-64
2023/12/05 03:59:36;;;;;;;28.70;23.48;;;1.30;99.90;;;;;;5051146;28;20203;-65
2023/12/05 04:02:03;;;;;;;28.90;22.75;;;1.40;99.90;;;;;;5051127;28;20224;-64
2023/12/05 04:04:29;;;;;;;28.52;22.08;;;1.40;99.90;;;;;;5050445;28;20231;-65
2023/12/05 04:06:56;;;;;;;28.40;23.45;;;1.40;99.90;;;;;;5050709;28;20228;-65
2023/12/05 04:09:24;;;;;;;28.33;21.42;;;1.40;99.90;;;;;;5050598;28;20206;-64
2023/12/05 04:11:51;;;;;;;26.95;22.02;;;1.40;99.90;;;;;;5050987;28;20210;-64
2023/12/05 04:14:18;;;;;;;30.58;21.83;;;1.40;99.90;;;;;;5050540;28;20230;-65
2023/12/05 04:16:45;;;;;;;30.48;22.52;;;1.40;99.90;;;;;;5050817;28;20249;-64
2023/12/05 04:19:11;;;;;;;26.30;20.63;;;1.40;99.90;;;;;;5050440;28;20202;-64
2023/12/05 04:21:38;;;;;;;26.25;21.92;;;1.30;99.90;;;;;;5050705;28;20213;-64
2023/12/05 04:24:06;;;;;;;37.85;23.48;;;1.30;99.90;;;;;;5050880;28;20586;-65
2023/12/05 04:26:34;;;;;;;30.27;22.30;;;1.30;99.90;;;;;;5050645;28;20580;-64
2023/12/05 04:29:01;;;;;;;32.00;22.98;;;1.30;99.90;;;;;;5050633;28;20264;-64
2023/12/05 04:31:28;;;;;;;29.00;21.48;;;1.30;99.90;;;;;;5050701;28;20203;-64
2023/12/05 04:33:55;;;;;;;28.88;20.52;;;1.30;99.90;;;;;;5050403;28;20234;-64
2023/12/05 04:36:24;;;;;;;28.10;21.05;;;1.20;99.90;;;;;;5050413;28;20705;-64
2023/12/05 04:38:50;;;;;;;26.77;22.13;;;1.20;99.90;;;;;;5050451;28;20707;-64
2023/12/05 04:41:17;;;;;;;27.00;20.65;;;1.20;99.90;;;;;;5050866;28;20302;-64
2023/12/05 04:43:46;;;;;;;27.58;21.75;;;1.20;99.90;;;;;;5050480;28;20712;-64
2023/12/05 04:46:13;;;;;;;32.83;23.23;;;1.20;99.90;;;;;;5050434;28;20253;-64
2023/12/05 04:48:39;;;;;;;26.75;21.13;;;1.10;99.90;;;;;;5050307;28;20226;-64
2023/12/05 04:51:06;;;;;;;28.70;21.08;;;1.10;99.90;;;;;;5050475;28;20209;-64
2023/12/05 04:53:33;;;;;;;29.05;22.13;;;1.10;99.90;;;;;;5050430;28;20756;-64
2023/12/05 04:56:00;;;;;;;30.05;22.40;;;1.20;99.90;;;;;;5050531;28;20206;-65
2023/12/05 04:58:28;;;;;;;33.50;23.30;;;1.20;99.90;;;;;;5049280;28;20619;-64
2023/12/05 05:00:57;;;;;;;29.45;21.23;;;1.20;99.90;;;;;;5053487;28;20210;-64
2023/12/05 05:03:23;;;;;;;34.15;22.80;;;1.20;99.90;;;;;;5053772;28;20222;-64
2023/12/05 05:05:50;;;;;;;31.95;23.30;;;1.20;99.90;;;;;;5053877;28;20605;-64
2023/12/05 05:08:17;;;;;;;32.63;22.48;;;1.20;99.90;;;;;;5053932;28;20202;-63
2023/12/05 05:10:44;;;;;;;30.80;21.35;;;1.20;99.90;;;;;;5054016;28;20215;-64
2023/12/05 05:13:11;;;;;;;27.38;22.05;;;1.20;99.90;;;;;;5052582;28;20245;-64
2023/12/05 05:15:37;;;;;;;28.30;21.77;;;1.20;99.90;;;;;;5053584;28;20333;-64
2023/12/05 05:18:06;;;;;;;29.58;23.00;;;1.20;99.90;;;;;;5052434;28;20290;-64
2023/12/05 05:20:32;;;;;;;28.58;20.83;;;1.20;99.90;;;;;;5045792;28;20616;-64
2023/12/05 05:22:59;;;;;;;30.10;22.60;;;1.30;99.90;;;;;;5052848;28;20306;-64
2023/12/05 05:25:26;;;;;;;28.63;21.48;;;1.30;99.90;;;;;;5053333;28;20253;-64
2023/12/05 05:27:53;;;;;;;29.42;23.08;;;1.30;99.90;;;;;;5053123;28;20224;-63
2023/12/05 05:30:20;;;;;;;31.63;22.80;;;1.30;99.90;;;;;;5053229;28;20319;-63
2023/12/05 05:32:47;;;;;;;32.30;23.08;;;1.20;99.90;;;;;;5053487;28;20294;-64
2023/12/05 05:35:15;;;;;;;33.72;22.60;;;1.30;99.90;;;;;;5053401;28;20744;-64
2023/12/05 05:37:42;;;;;;;31.40;21.88;;;1.20;99.90;;;;;;5052340;28;20206;-64
2023/12/05 05:40:10;;;;;;;31.65;24.35;;;1.30;99.90;;;;;;5053312;28;20214;-64
2023/12/05 05:42:36;;;;;;;30.92;23.08;;;1.20;99.90;;;;;;5053259;28;20639;-64
2023/12/05 05:45:05;;;;;;;28.75;22.52;;;1.30;99.90;;;;;;5052927;28;20233;-64
2023/12/05 05:47:31;;;;;;;32.30;24.05;;;1.30;99.90;;;;;;5044584;28;20202;-63
2023/12/05 05:49:58;;;;;;;34.10;22.77;;;1.30;99.90;;;;;;5053237;28;20233;-64
2023/12/05 05:52:26;;;;;;;32.67;22.95;;;1.30;99.90;;;;;;5053085;28;20292;-63
2023/12/05 05:54:53;;;;;;;32.13;26.58;;;1.30;99.90;;;;;;5052800;28;20804;-63
2023/12/05 05:57:20;;;;;;;26.45;21.05;;;1.30;99.90;;;;;;5052691;28;20218;-64
2023/12/05 05:59:47;;;;;;;34.88;23.48;;;1.30;99.90;;;;;;5052722;28;20249;-63
2023/12/05 06:02:14;;;;;;;29.08;23.60;;;1.40;99.90;;;;;;5052999;28;20215;-63
2023/12/05 06:04:41;;;;;;;28.02;23.55;;;1.40;99.90;;;;;;5052724;28;20256;-63
2023/12/05 06:07:08;;;;;;;29.92;23.13;;;1.40;99.90;;;;;;5052619;28;20213;-63
2023/12/05 06:09:37;;;;;;;32.65;23.50;;;1.40;99.90;;;;;;5052589;28;20210;-63
2023/12/05 06:12:07;;;;;;;30.40;22.50;;;1.40;99.90;;;;;;5052514;28;20213;-63
2023/12/05 06:14:34;;;;;;;32.00;22.63;;;1.40;99.90;;;;;;5044538;28;20677;-64
2023/12/05 06:17:02;;;;;;;27.25;23.45;;;1.40;99.90;;;;;;5052317;28;20669;-63
2023/12/05 06:19:29;;;;;;;36.75;29.02;;;1.50;99.90;;;;;;5052539;28;20209;-63
2023/12/05 06:21:56;;;;;;;31.33;23.70;;;1.40;99.90;;;;;;5052562;28;20206;-64
2023/12/05 06:24:22;;;;;;;33.42;23.70;;;1.40;99.90;;;;;;5052336;28;20238;-64
2023/12/05 06:26:52;;;;;;;34.17;25.73;;;1.50;99.90;;;;;;5052162;28;20232;-64
2023/12/05 06:29:19;;;;;;;30.13;24.00;;;1.50;99.90;;;;;;5052114;28;20214;-64
2023/12/05 06:31:46;;;;;;;32.03;25.70;;;1.40;99.90;;;;;;5052124;28;20211;-64
2023/12/05 06:34:12;;;;;;;34.60;25.08;;;1.50;99.90;;;;;;5052237;28;20232;-64
2023/12/05 06:36:39;;;;;;;29.88;23.67;;;1.50;99.90;;;;;;5052143;28;20310;-64
2023/12/05 06:39:08;;;;;;;37.78;26.58;;;1.50;99.90;;;;;;5051210;28;20213;-65
2023/12/05 06:41:35;;;;;;;32.88;25.67;;;1.50;99.90;;;;;;5050983;28;20202;-64
2023/12/05 06:44:03;;;;;;;36.08;24.15;;;1.50;99.90;;;;;;5051317;28;20325;-64
2023/12/05 06:46:30;;;;;;;34.78;24.70;;;1.50;99.90;;;;;;5051375;28;20607;-64
2023/12/05 06:48:57;;;;;;;30.48;23.38;;;1.50;99.90;;;;;;5050729;28;20209;-64
2023/12/05 06:51:25;;;;;;;30.30;23.95;;;1.50;99.90;;;;;;5051408;28;20564;-64
2023/12/05 06:53:52;;;;;;;32.95;24.25;;;1.50;99.90;;;;;;5051164;28;20226;-64
2023/12/05 06:56:19;;;;;;;34.53;24.75;;;1.50;99.90;;;;;;5051020;28;20213;-64
2023/12/05 06:58:46;;;;;;;32.88;26.10;;;1.60;99.90;;;;;;5051448;28;20206;-64
2023/12/05 07:01:15;;;;;;;38.08;25.65;;;1.50;99.90;;;;;;5051141;28;20587;-64
2023/12/05 07:03:41;;;;;;;37.15;28.25;;;1.50;99.90;;;;;;5051165;28;20944;-64
2023/12/05 07:06:09;;;;;;;38.28;28.60;;;1.50;99.90;;;;;;5051054;28;20325;-64
2023/12/05 07:08:36;;;;;;;34.53;25.40;;;1.60;99.90;;;;;;5050661;28;20213;-64
2023/12/05 07:11:03;;;;;;;34.17;25.55;;;1.60;99.90;;;;;;5051045;28;20557;-64
2023/12/05 07:13:29;;;;;;;34.70;27.25;;;1.60;99.90;;;;;;5050949;28;20295;-64
2023/12/05 07:15:57;;;;;;;35.00;26.25;;;1.50;99.90;;;;;;5050880;28;20202;-63
2023/12/05 07:18:25;;;;;;;40.30;26.05;;;1.60;99.90;;;;;;5050872;28;20222;-64
2023/12/05 07:20:52;;;;;;;37.97;27.33;;;1.60;99.90;;;;;;5050828;28;20301;-64
2023/12/05 07:23:18;;;;;;;38.50;25.77;;;1.60;99.90;;;;;;5050139;28;20241;-64
2023/12/05 07:25:45;;;;;;;31.88;24.20;;;1.60;99.90;;;;;;5050569;28;20222;-64
2023/12/05 07:28:12;;;;;;;37.17;27.38;;;1.60;99.90;;;;;;5050713;28;20205;-64
2023/12/05 07:30:39;;;;;;;40.55;27.05;;;1.60;99.90;;;;;;5050662;28;20213;-64
2023/12/05 07:33:06;;;;;;;37.53;26.63;;;1.60;99.90;;;;;;5050613;28;20204;-64
2023/12/05 07:35:34;;;;;;;33.70;26.13;;;1.60;99.90;;;;;;5049963;28;20285;-64
2023/12/05 07:38:01;;;;;;;34.47;25.88;;;1.60;99.90;;;;;;5050662;28;20581;-64
2023/12/05 07:40:27;;;;;;;42.20;28.70;;;1.60;99.90;;;;;;5050726;28;20252;-64
2023/12/05 07:42:54;;;;;;;34.00;28.45;;;1.60;99.90;;;;;;5050474;28;20622;-64
2023/12/05 07:45:21;;;;;;;39.38;28.13;;;1.60;99.90;;;;;;5050408;28;20321;-64
2023/12/05 07:47:48;;;;;;;32.88;25.85;;;1.60;99.90;;;;;;5050327;28;20295;-64
2023/12/05 07:50:15;;;;;;;38.20;27.17;;;1.60;99.90;;;;;;5048364;28;20237;-63
2023/12/05 07:52:43;;;;;;;34.00;27.15;;;1.60;99.90;;;;;;5050473;28;20216;-64
2023/12/05 07:55:10;;;;;;;34.95;27.80;;;1.70;99.90;;;;;;5049892;28;20284;-63
2023/12/05 07:57:37;;;;;;;39.22;26.25;;;1.70;99.90;;;;;;5050132;28;20589;-63
2023/12/05 08:00:09;;;;;;;37.65;27.20;;;1.70;99.90;;;;;;5050091;28;20764;-62
2023/12/05 08:02:36;;;;;;;34.45;25.77;;;1.70;99.90;;;;;;5050331;28;20553;-63
2023/12/05 08:05:03;;;;;;;41.00;30.98;;;1.70;99.90;;;;;;5050209;28;20228;-62
2023/12/05 08:07:30;;;;;;;36.92;28.52;;;1.70;99.90;;;;;;5050313;28;20642;-62
2023/12/05 08:09:58;;;;;;;40.13;28.65;;;1.70;99.90;;;;;;5050252;28;20202;-62
2023/12/05 08:12:25;;;;;;;35.03;28.92;;;1.70;99.90;;;;;;5050168;28;20216;-61
2023/12/05 08:14:52;;;;;;;37.80;28.88;;;1.70;99.90;;;;;;5049782;28;20320;-62
2023/12/05 08:17:19;;;;;;;38.53;27.73;;;1.80;99.90;;;;;;5049821;28;20751;-62
2023/12/05 08:19:45;;;;;;;33.53;23.95;;;1.80;99.90;;;;;;5050531;28;20214;-61
2023/12/05 08:22:12;;;;;;;34.30;26.23;;;1.90;99.90;;;;;;5049856;28;20684;-60
2023/12/05 08:24:39;;;;;;;28.40;24.23;;;1.80;99.90;;;;;;5050072;28;20313;-59
2023/12/05 08:27:07;;;;;;;30.77;22.90;;;1.90;99.90;;;;;;5049676;28;20280;-60
2023/12/05 08:29:34;;;;;;;33.42;23.58;;;1.90;99.90;;;;;;5049432;28;20212;-62
2023/12/05 08:32:02;;;;;;;25.50;21.75;;;2.00;99.90;;;;;;5033173;28;20293;-61
2023/12/05 08:34:29;;;;;;;30.35;23.17;;;2.00;99.90;;;;;;5052947;28;20234;-60
2023/12/05 08:36:56;;;;;;;26.02;21.15;;;2.00;99.90;;;;;;5052477;28;20203;-60
2023/12/05 08:39:22;;;;;;;28.05;20.90;;;2.10;99.90;;;;;;5050929;28;20297;-60
2023/12/05 08:41:49;;;;;;;22.55;19.65;;;2.10;99.90;;;;;;5049595;28;20209;-59
2023/12/05 08:44:19;;;;;;;26.20;19.95;;;2.20;99.90;;;;;;5049538;28;20242;-60
2023/12/05 08:46:46;;;;;;;24.33;20.60;;;2.20;99.90;;;;;;5047479;28;20230;-61
2023/12/05 08:49:13;;;;;;;32.60;21.85;;;2.20;99.90;;;;;;5051332;28;20268;-60
2023/12/05 08:51:40;;;;;;;25.45;19.35;;;2.30;99.90;;;;;;5053208;28;20283;-61
2023/12/05 08:54:07;;;;;;;26.60;19.25;;;2.30;99.90;;;;;;5053551;28;20230;-61
2023/12/05 08:56:34;;;;;;;26.10;19.73;;;2.30;99.90;;;;;;5050888;28;20282;-60
2023/12/05 08:59:00;;;;;;;25.10;18.83;;;2.30;99.90;;;;;;5052332;28;20285;-60
2023/12/05 09:01:29;;;;;;;22.10;18.33;;;2.30;99.90;;;;;;5052172;28;20217;-58
2023/12/05 09:03:55;;;;;;;29.10;19.90;;;2.40;99.90;;;;;;5051537;28;20237;-61
2023/12/05 09:06:22;;;;;;;24.50;19.25;;;2.40;99.90;;;;;;5052694;28;20236;-62
2023/12/05 09:08:49;;;;;;;28.05;20.77;;;2.50;99.90;;;;;;5053302;28;20205;-62
2023/12/05 09:11:16;;;;;;;27.90;18.20;;;2.50;99.90;;;;;;5053952;28;20209;-60
2023/12/05 09:13:45;;;;;;;24.73;17.52;;;2.60;99.90;;;;;;5053847;28;20728;-62
2023/12/05 09:16:12;;;;;;;20.63;18.25;;;2.70;99.90;;;;;;5053074;28;20440;-62
2023/12/05 09:18:40;;;;;;;19.67;15.90;;;2.70;99.90;;;;;;5052513;28;20694;-63
2023/12/05 09:21:08;;;;;;;20.83;15.73;;;2.70;99.90;;;;;;5052249;28;20211;-63
2023/12/05 09:23:35;;;;;;;19.45;16.50;;;2.80;99.90;;;;;;5050915;28;20222;-63
2023/12/05 09:26:01;;;;;;;21.40;19.10;;;2.80;99.90;;;;;;5051744;28;20224;-62
2023/12/05 09:28:31;;;;;;;24.73;18.02;;;2.80;99.90;;;;;;5052021;28;20262;-62
2023/12/05 09:30:58;;;;;;;20.20;18.00;;;2.90;99.90;;;;;;5052780;28;20199;-63
2023/12/05 09:33:24;;;;;;;17.95;16.05;;;2.90;99.90;;;;;;5052515;28;20226;-62
2023/12/05 09:35:53;;;;;;;22.80;18.15;;;2.90;99.90;;;;;;5052690;28;20205;-60
2023/12/05 09:38:29;;;;;;;22.52;17.48;;;3.00;99.90;;;;;;5052615;28;20293;-63
2023/12/05 09:40:57;;;;;;;25.10;19.20;;;3.00;99.90;;;;;;5052349;28;20687;-63
2023/12/05 09:43:24;;;;;;;21.13;18.92;;;3.10;99.90;;;;;;5052257;28;20230;-61
2023/12/05 09:45:59;;;;;;;24.42;19.33;;;3.10;99.90;;;;;;5051659;28;20202;-63
2023/12/05 09:48:28;;;;;;;28.58;20.00;;;3.10;99.90;;;;;;5036618;28;20578;-62
2023/12/05 09:50:57;;;;;;;24.42;18.90;;;3.20;99.90;;;;;;5048832;28;20206;-61
2023/12/05 09:53:25;;;;;;;25.20;18.13;;;3.20;99.90;;;;;;5050691;28;20971;-63
2023/12/05 09:55:51;;;;;;;20.85;17.55;;;3.20;99.90;;;;;;5050673;28;20202;-63
2023/12/05 09:58:19;;;;;;;26.63;20.77;;;3.20;99.90;;;;;;5050785;28;20195;-63
2023/12/05 10:00:46;;;;;;;25.45;20.02;;;3.20;99.90;;;;;;5051305;28;20641;-63
2023/12/05 10:03:15;;;;;;;20.63;16.27;;;3.20;99.90;;;;;;5050881;28;20222;-63
2023/12/05 10:05:44;;;;;;;23.25;17.85;;;3.20;99.90;;;;;;5050584;28;20703;-62
2023/12/05 10:08:12;;;;;;;25.83;20.15;;;3.20;99.90;;;;;;5050436;28;20233;-62
2023/12/05 10:10:42;;;;;;;23.10;19.20;;;3.20;99.90;;;;;;5050707;28;20290;-62
2023/12/05 10:13:10;;;;;;;22.13;18.17;;;3.30;99.90;;;;;;5050881;28;20369;-62
2023/12/05 10:15:37;;;;;;;21.83;18.60;;;3.30;99.90;;;;;;5050734;28;20726;-62
2023/12/05 10:18:05;;;;;;;20.95;16.35;;;3.30;99.90;;;;;;5050042;28;20194;-62
2023/12/05 10:20:32;;;;;;;22.20;17.05;;;3.30;99.90;;;;;;5050924;28;20687;-62
2023/12/05 10:22:59;;;;;;;22.85;17.77;;;3.30;99.90;;;;;;5050782;28;20702;-62
2023/12/05 10:25:27;;;;;;;21.80;19.50;;;3.40;99.90;;;;;;5050634;28;20289;-62
2023/12/05 10:28:01;;;;;;;21.42;18.50;;;3.50;99.90;;;;;;5050518;28;20309;-62
2023/12/05 10:30:32;;;;;;;21.27;18.63;;;3.50;99.90;;;;;;5034921;28;20202;-62
2023/12/05 10:33:09;;;;;;;24.30;20.52;;;3.60;99.90;;;;;;5050696;28;20206;-62
2023/12/05 10:35:36;;;;;;;23.17;20.35;;;3.70;99.90;;;;;;5050527;28;20711;-62
2023/12/05 10:38:05;;;;;;;28.10;20.40;;;3.70;99.90;;;;;;5050263;28;20209;-62
2023/12/05 10:40:50;;;;;;;25.13;20.38;;;3.80;99.90;;;;;;5050386;28;20233;-62
2023/12/05 10:43:18;;;;;;;27.75;23.10;;;3.90;99.90;;;;;;5050036;28;20233;-62
2023/12/05 10:45:45;;;;;;;26.83;22.75;;;4.00;99.90;;;;;;5050298;28;20202;-62
2023/12/05 10:48:12;;;;;;;26.63;23.88;;;4.10;99.90;;;;;;5049797;28;20597;-61
2023/12/05 10:50:40;;;;;;;27.35;23.90;;;4.20;99.90;;;;;;5050263;28;20286;-61
2023/12/05 10:53:07;;;;;;;35.20;27.08;;;4.30;99.90;;;;;;5050354;28;20670;-62
2023/12/05 10:55:36;;;;;;;24.38;21.98;;;4.30;99.90;;;;;;5049658;28;20576;-61
2023/12/05 10:58:03;;;;;;;27.00;22.25;;;4.40;99.90;;;;;;5049262;28;20285;-62
2023/12/05 11:00:30;;;;;;;22.50;19.42;;;4.50;99.90;;;;;;5049986;28;20285;-60
2023/12/05 11:02:57;;;;;;;20.98;18.08;;;4.60;99.90;;;;;;5049551;28;20574;-62
2023/12/05 11:05:25;;;;;;;21.08;18.02;;;4.80;99.90;;;;;;5049058;28;20210;-61
2023/12/05 11:07:52;;;;;;;20.85;17.27;;;4.90;99.90;;;;;;5048611;28;20225;-61
2023/12/05 11:10:19;;;;;;;19.95;17.90;;;5.00;99.90;;;;;;5048140;28;20199;-60
2023/12/05 11:12:51;;;;;;;20.75;17.70;;;5.10;99.90;;;;;;5048881;28;20202;-62
2023/12/05 11:15:24;;;;;;;21.58;16.95;;;5.20;99.90;;;;;;5048153;28;20313;-60
2023/12/05 11:17:54;;;;;;;19.35;17.27;;;5.30;99.90;;;;;;5048912;28;20202;-59
2023/12/05 11:20:31;;;;;;;15.60;13.90;;;5.40;99.90;;;;;;5046972;28;20298;-61
2023/12/05 11:23:16;;;;;;;12.93;11.63;;;5.60;99.90;;;;;;5043376;28;20297;-59
2023/12/05 11:25:54;;;;;;;10.85;9.85;;;5.70;99.90;;;;;;5044150;28;20690;-60
2023/12/05 11:28:52;;;;;;;11.20;9.20;;;5.80;99.90;;;;;;5048383;28;20261;-61
2023/12/05 11:31:27;;;;;;;9.45;8.55;;;6.00;99.90;;;;;;5046784;28;20298;-59
2023/12/05 11:34:23;;;;;;;7.90;7.10;;;6.10;99.90;;;;;;5048770;28;20222;-61
2023/12/05 11:37:03;;;;;;;7.40;6.75;;;6.30;99.90;;;;;;5041010;28;20214;-60
2023/12/05 11:39:30;;;;;;;7.00;6.40;;;6.30;99.90;;;;;;5048300;28;20301;-61
2023/12/05 11:42:11;;;;;;;6.50;5.93;;;6.20;99.90;;;;;;5049201;28;20644;-61
2023/12/05 11:44:40;;;;;;;6.28;5.68;;;6.20;99.90;;;;;;5046932;28;20305;-60
2023/12/05 11:47:14;;;;;;;6.03;5.53;;;6.10;99.90;;;;;;5049936;28;20316;-60
2023/12/05 11:49:50;;;;;;;10.82;10.00;;;6.00;99.90;;;;;;5047125;28;20224;-61
2023/12/05 11:52:19;;;;;;;5.95;5.43;;;6.00;99.90;;;;;;5050010;28;20230;-60
2023/12/05 11:54:48;;;;;;;5.30;4.85;;;5.90;99.90;;;;;;5049323;28;20229;-60
2023/12/05 11:57:16;;;;;;;4.78;4.40;;;5.70;99.90;;;;;;5049645;28;20206;-60
2023/12/05 11:59:46;;;;;;;4.32;4.03;;;5.60;99.90;;;;;;5049502;28;20259;-60
2023/12/05 12:02:14;;;;;;;5.32;4.82;;;5.60;99.90;;;;;;5050069;28;20232;-60
2023/12/05 12:04:40;;;;;;;4.93;4.53;;;5.50;99.90;;;;;;5049381;28;20229;-60
2023/12/05 12:07:08;;;;;;;3.90;3.58;;;5.40;99.90;;;;;;5049676;28;20272;-59
2023/12/05 12:09:39;;;;;;;4.05;3.65;;;5.30;99.90;;;;;;5052141;28;20669;-60
2023/12/05 12:12:07;;;;;;;5.07;4.28;;;5.20;99.90;;;;;;5054046;28;20229;-61
2023/12/05 12:14:34;;;;;;;4.50;3.75;;;5.10;99.90;;;;;;5052637;28;20248;-59
2023/12/05 12:17:05;;;;;;;3.53;3.33;;;5.10;99.90;;;;;;5053405;28;20281;-60
2023/12/05 12:19:32;;;;;;;4.35;3.00;;;5.00;99.90;;;;;;5053291;28;20221;-60
2023/12/05 12:22:06;;;;;;;3.75;3.45;;;4.90;99.90;;;;;;5053740;28;20265;-61
2023/12/05 12:24:33;;;;;;;3.75;3.40;;;4.80;99.90;;;;;;5053126;28;20230;-58
2023/12/05 12:27:00;;;;;;;4.13;3.50;;;4.80;99.90;;;;;;5053418;28;20346;-60
2023/12/05 12:29:27;;;;;;;3.20;2.97;;;4.70;99.90;;;;;;5053456;28;20199;-60
2023/12/05 12:32:07;;;;;;;3.67;3.25;;;4.70;99.90;;;;;;5053804;28;20578;-61
2023/12/05 12:34:34;;;;;;;4.30;3.13;;;4.60;99.90;;;;;;5039012;28;20301;-59
2023/12/05 12:37:02;;;;;;;4.03;3.60;;;4.50;99.90;;;;;;5053553;28;20195;-60
2023/12/05 12:39:30;;;;;;;3.88;3.45;;;4.50;99.90;;;;;;5052790;28;20217;-61
2023/12/05 12:41:57;;;;;;;3.20;3.00;;;4.50;99.90;;;;;;5053071;28;20233;-60
2023/12/05 12:44:26;;;;;;;4.20;3.20;;;4.50;99.90;;;;;;5050029;28;20704;-61